sensor_id;sensor_type;location;lat;lon;timestamp;pressure;altitude;pressure_sealevel;temperature;humidity
4836;BME280;66719;51.226;6.902;2023-11-18T00:01:05;101636.50;;;4.63;100.00
4836;BME280;66719;51.226;6.902;2023-11-18T00:03:32;101641.72;;;4.65;100.00
4836;BME280;66719;51.226;6.902;2023-11-18T00:05:58;101646.03;;;4.64;100.00
4836;BME280;66719;51.226;6.902;2023-11-18T00:08:26;101649.44;;;4.62;100.00
4836;BME280;66719;51.226;6.902;2023-11-18T00:10:53;101652.94;;;4.64;100.00
4836;BME280;66719;51.226;6.902;2023-11-18T00:13:20;101646.03;;;4.64;100.00
4836;BME280;66719;51.226;6.902;2023-11-18T00:15:47;101651.22;;;4.64;100.00
4836;BME280;66719;51.226;6.902;2023-11-18T00:18:14;101648.63;;;4.64;100.00
4836;BME280;66719;51.226;6.902;2023-11-18T00:20:42;101639.97;;;4.62;100.00
4836;BME280;66719;51.226;6.902;2023-11-18T00:23:09;101652.09;;;4.65;100.00
4836;BME280;66719;51.226;6.902;2023-11-18T00:25:36;101643.41;;;4.61;100.00
4836;BME280;66719;51.226;6.902;2023-11-18T00:28:03;101656.34;;;4.61;100.00
4836;BME280;66719;51.226;6.902;2023-11-18T00:30:29;101638.09;;;4.57;100.00
4836;BME280;66719;51.226;6.902;2023-11-18T00:32:56;101639.72;;;4.51;100.00
4836;BME280;66719;51.226;6.902;2023-11-18T00:35:23;101637.09;;;4.50;100.00
4836;BME280;66719;51.226;6.902;2023-11-18T00:37:49;101635.34;;;4.49;100.00
4836;BME280;66719;51.226;6.902;2023-11-18T00:40:16;101630.13;;;4.47;100.00
4836;BME280;66719;51.226;6.902;2023-11-18T00:42:45;101623.16;;;4.45;100.00
4836;BME280;66719;51.226;6.902;2023-11-18T00:45:12;101622.28;;;4.44;100.00
4836;BME280;66719;51.226;6.902;2023-11-18T00:47:39;101629.22;;;4.45;100.00
4836;BME280;66719;51.226;6.902;2023-11-18T00:50:07;101624.91;;;4.46;100.00
4836;BME280;66719;51.226;6.902;2023-11-18T00:52:35;101618.84;;;4.45;100.00
4836;BME280;66719;51.226;6.902;2023-11-18T00:55:07;101621.44;;;4.45;100.00
4836;BME280;66719;51.226;6.902;2023-11-18T00:57:34;101621.34;;;4.41;100.00
4836;BME280;66719;51.226;6.902;2023-11-18T01:00:01;101617.00;;;4.40;100.00
4836;BME280;66719;51.226;6.902;2023-11-18T01:02:27;101621.22;;;4.35;100.00
4836;BME280;66719;51.226;6.902;2023-11-18T01:04:54;101615.06;;;4.30;100.00
4836;BME280;66719;51.226;6.902;2023-11-18T01:07:21;101614.19;;;4.29;100.00
4836;BME280;66719;51.226;6.902;2023-11-18T01:09:48;101609.00;;;4.29;100.00
4836;BME280;66719;51.226;6.902;2023-11-18T01:12:15;101615.94;;;4.30;100.00
4836;BME280;66719;51.226;6.902;2023-11-18T01:14:42;101616.78;;;4.29;100.00
4836;BME280;66719;51.226;6.902;2023-11-18T01:17:08;101612.44;;;4.28;100.00
4836;BME280;66719;51.226;6.902;2023-11-18T01:19:40;101613.19;;;4.24;100.00
4836;BME280;66719;51.226;6.902;2023-11-18T01:22:07;101616.78;;;4.29;100.00
4836;BME280;66719;51.226;6.902;2023-11-18T01:24:34;101620.13;;;4.25;100.00
4836;BME280;66719;51.226;6.902;2023-11-18T01:27:01;101625.44;;;4.30;100.00
4836;BME280;66719;51.226;6.902;2023-11-18T01:29:28;101638.38;;;4.30;100.00
4836;BME280;66719;51.226;6.902;2023-11-18T01:31:55;101646.16;;;4.30;100.00
4836;BME280;66719;51.226;6.902;2023-11-18T01:34:22;101646.13;;;4.28;100.00
4836;BME280;66719;51.226;6.902;2023-11-18T01:36:49;101653.06;;;4.29;100.00
4836;BME280;66719;51.226;6.902;2023-11-18T01:39:17;101651.34;;;4.30;100.00
4836;BME280;66719;51.226;6.902;2023-11-18T01:41:47;101655.69;;;4.31;100.00
4836;BME280;66719;51.226;6.902;2023-11-18T01:44:15;101665.06;;;4.25;100.00
4836;BME280;66719;51.226;6.902;2023-11-18T01:46:42;101658.19;;;4.26;100.00
4836;BME280;66719;51.226;6.902;2023-11-18T01:49:13;101655.59;;;4.26;100.00
4836;BME280;66719;51.226;6.902;2023-11-18T01:51:45;101655.63;;;4.28;100.00
4836;BME280;66719;51.226;6.902;2023-11-18T01:54:13;101654.75;;;4.27;100.00
4836;BME280;66719;51.226;6.902;2023-11-18T01:56:47;101649.44;;;4.22;100.00
4836;BME280;66719;51.226;6.902;2023-11-18T01:59:14;101646.88;;;4.22;100.00
4836;BME280;66719;51.226;6.902;2023-11-18T02:01:49;101647.69;;;4.20;100.00
4836;BME280;66719;51.226;6.902;2023-11-18T02:04:17;101637.31;;;4.20;100.00
4836;BME280;66719;51.226;6.902;2023-11-18T02:06:50;101648.53;;;4.19;100.00
4836;BME280;66719;51.226;6.902;2023-11-18T02:09:19;101650.16;;;4.15;100.00
4836;BME280;66719;51.226;6.902;2023-11-18T02:12:23;101641.53;;;4.16;100.00
4836;BME280;66719;51.226;6.902;2023-11-18T02:14:55;101651.03;;;4.16;100.00
4836;BME280;66719;51.226;6.902;2023-11-18T02:17:25;101652.75;;;4.15;100.00
4836;BME280;66719;51.226;6.902;2023-11-18T02:19:53;101649.28;;;4.15;100.00
4836;BME280;66719;51.226;6.902;2023-11-18T02:22:20;101641.53;;;4.16;100.00
4836;BME280;66719;51.226;6.902;2023-11-18T02:24:48;101638.13;;;4.17;100.00
4836;BME280;66719;51.226;6.902;2023-11-18T02:27:15;101638.91;;;4.15;100.00
4836;BME280;66719;51.226;6.902;2023-11-18T02:29:44;101633.75;;;4.16;100.00
4836;BME280;66719;51.226;6.902;2023-11-18T02:32:33;101638.91;;;4.15;100.00
4836;BME280;66719;51.226;6.902;2023-11-18T02:35:10;101646.69;;;4.15;100.00
4836;BME280;66719;51.226;6.902;2023-11-18T02:37:42;101639.00;;;4.18;100.00
4836;BME280;66719;51.226;6.902;2023-11-18T02:40:15;101624.31;;;4.18;100.00
4836;BME280;66719;51.226;6.902;2023-11-18T02:42:44;101626.81;;;4.15;100.00
4836;BME280;66719;51.226;6.902;2023-11-18T02:45:13;101618.28;;;4.18;100.00
4836;BME280;66719;51.226;6.902;2023-11-18T02:47:44;101620.91;;;4.21;100.00
4836;BME280;66719;51.226;6.902;2023-11-18T02:50:11;101626.06;;;4.19;100.00
4836;BME280;66719;51.226;6.902;2023-11-18T02:52:40;101620.81;;;4.16;100.00
4836;BME280;66719;51.226;6.902;2023-11-18T02:55:07;101623.38;;;4.15;100.00
4836;BME280;66719;51.226;6.902;2023-11-18T02:57:35;101617.31;;;4.14;100.00
4836;BME280;66719;51.226;6.902;2023-11-18T03:00:03;101645.84;;;4.16;100.00
4836;BME280;66719;51.226;6.902;2023-11-18T03:02:31;101651.13;;;4.19;100.00
4836;BME280;66719;51.226;6.902;2023-11-18T03:04:58;101654.59;;;4.19;100.00
4836;BME280;66719;51.226;6.902;2023-11-18T03:07:25;101653.63;;;4.16;100.00
4836;BME280;66719;51.226;6.902;2023-11-18T03:09:53;101645.91;;;4.17;100.00
4836;BME280;66719;51.226;6.902;2023-11-18T03:12:23;101645.78;;;4.13;100.00
4836;BME280;66719;51.226;6.902;2023-11-18T03:14:54;101623.31;;;4.12;100.00
4836;BME280;66719;51.226;6.902;2023-11-18T03:17:21;101619.00;;;4.12;100.00
4836;BME280;66719;51.226;6.902;2023-11-18T03:19:48;101628.50;;;4.12;100.00
4836;BME280;66719;51.226;6.902;2023-11-18T03:22:15;101626.78;;;4.12;100.00
4836;BME280;66719;51.226;6.902;2023-11-18T03:24:41;101613.84;;;4.14;100.00
4836;BME280;66719;51.226;6.902;2023-11-18T03:27:09;101610.44;;;4.16;100.00
4836;BME280;66719;51.226;6.902;2023-11-18T03:29:35;101613.97;;;4.18;100.00
4836;BME280;66719;51.226;6.902;2023-11-18T03:32:02;101606.97;;;4.16;100.00
4836;BME280;66719;51.226;6.902;2023-11-18T03:34:31;101590.59;;;4.17;100.00
4836;BME280;66719;51.226;6.902;2023-11-18T03:36:59;101591.50;;;4.17;100.00
4836;BME280;66719;51.226;6.902;2023-11-18T03:39:25;101582.88;;;4.18;100.00
4836;BME280;66719;51.226;6.902;2023-11-18T03:41:53;101578.56;;;4.19;100.00
4836;BME280;66719;51.226;6.902;2023-11-18T03:44:20;101580.22;;;4.17;100.00
4836;BME280;66719;51.226;6.902;2023-11-18T03:46:47;101600.16;;;4.19;100.00
4836;BME280;66719;51.226;6.902;2023-11-18T03:49:13;101600.94;;;4.17;100.00
4836;BME280;66719;51.226;6.902;2023-11-18T03:51:40;101603.53;;;4.17;100.00
4836;BME280;66719;51.226;6.902;2023-11-18T03:54:06;101609.63;;;4.17;100.00
4836;BME280;66719;51.226;6.902;2023-11-18T03:56:34;101610.44;;;4.16;100.00
4836;BME280;66719;51.226;6.902;2023-11-18T03:59:01;101617.34;;;4.16;100.00
4836;BME280;66719;51.226;6.902;2023-11-18T04:01:30;101617.31;;;4.14;100.00
4836;BME280;66719;51.226;6.902;2023-11-18T04:03:59;101629.41;;;4.15;100.00
4836;BME280;66719;51.226;6.902;2023-11-18T04:06:25;101636.34;;;4.16;100.00
4836;BME280;66719;51.226;6.902;2023-11-18T04:08:52;101640.63;;;4.14;100.00
4836;BME280;66719;51.226;6.902;2023-11-18T04:11:19;101622.50;;;4.14;100.00
4836;BME280;66719;51.226;6.902;2023-11-18T04:13:45;101623.38;;;4.15;100.00
4836;BME280;66719;51.226;6.902;2023-11-18T04:16:16;101623.38;;;4.15;100.00
4836;BME280;66719;51.226;6.902;2023-11-18T04:18:43;101607.78;;;4.13;100.00
4836;BME280;66719;51.226;6.902;2023-11-18T04:21:11;101608.72;;;4.17;100.00
4836;BME280;66719;51.226;6.902;2023-11-18T04:23:38;101596.44;;;4.08;100.00
4836;BME280;66719;51.226;6.902;2023-11-18T04:26:06;101594.69;;;4.07;100.00
4836;BME280;66719;51.226;6.902;2023-11-18T04:28:34;101593.81;;;4.07;100.00
4836;BME280;66719;51.226;6.902;2023-11-18T04:31:01;101589.50;;;4.07;100.00
4836;BME280;66719;51.226;6.902;2023-11-18T04:33:29;101581.72;;;4.06;100.00
4836;BME280;66719;51.226;6.902;2023-11-18T04:35:55;101574.81;;;4.06;100.00
4836;BME280;66719;51.226;6.902;2023-11-18T04:38:26;101573.09;;;4.07;100.00
4836;BME280;66719;51.226;6.902;2023-11-18T04:40:53;101567.88;;;4.05;100.00
4836;BME280;66719;51.226;6.902;2023-11-18T04:43:22;101560.06;;;4.02;100.00
4836;BME280;66719;51.226;6.902;2023-11-18T04:46:05;101554.00;;;4.02;100.00
4836;BME280;66719;51.226;6.902;2023-11-18T04:48:32;101541.06;;;4.02;100.00
4836;BME280;66719;51.226;6.902;2023-11-18T04:51:02;101544.53;;;4.04;100.00
4836;BME280;66719;51.226;6.902;2023-11-18T04:53:29;101542.78;;;4.01;100.00
4836;BME280;66719;51.226;6.902;2023-11-18T04:55:56;101547.09;;;4.02;100.00
4836;BME280;66719;51.226;6.902;2023-11-18T04:58:22;101537.44;;;3.95;100.00
4836;BME280;66719;51.226;6.902;2023-11-18T05:00:49;101543.50;;;3.95;100.00
4836;BME280;66719;51.226;6.902;2023-11-18T05:03:16;101529.69;;;3.96;100.00
4836;BME280;66719;51.226;6.902;2023-11-18T05:05:43;101526.34;;;4.01;100.00
4836;BME280;66719;51.226;6.902;2023-11-18T05:08:20;101520.34;;;4.03;100.00
4836;BME280;66719;51.226;6.902;2023-11-18T05:10:48;101530.75;;;4.05;100.00
4836;BME280;66719;51.226;6.902;2023-11-18T05:13:16;101518.69;;;4.07;100.00
4836;BME280;66719;51.226;6.902;2023-11-18T05:15:43;101511.78;;;4.07;100.00
4836;BME280;66719;51.226;6.902;2023-11-18T05:18:14;101505.72;;;4.07;100.00
4836;BME280;66719;51.226;6.902;2023-11-18T05:20:43;101497.16;;;4.09;100.00
4836;BME280;66719;51.226;6.902;2023-11-18T05:23:10;101494.59;;;4.09;100.00
4836;BME280;66719;51.226;6.902;2023-11-18T05:25:42;101488.53;;;4.09;100.00
4836;BME280;66719;51.226;6.902;2023-11-18T05:28:12;101481.56;;;4.08;100.00
4836;BME280;66719;51.226;6.902;2023-11-18T05:30:41;101486.81;;;4.09;100.00
4836;BME280;66719;51.226;6.902;2023-11-18T05:33:10;101494.59;;;4.09;100.00
4836;BME280;66719;51.226;6.902;2023-11-18T05:35:41;101496.31;;;4.10;100.00
4836;BME280;66719;51.226;6.902;2023-11-18T05:38:19;101488.56;;;4.10;100.00
4836;BME280;66719;51.226;6.902;2023-11-18T05:40:48;101494.69;;;4.15;100.00
4836;BME280;66719;51.226;6.902;2023-11-18T05:43:28;101496.50;;;4.19;100.00
4836;BME280;66719;51.226;6.902;2023-11-18T05:45:57;101496.50;;;4.19;100.00
4836;BME280;66719;51.226;6.902;2023-11-18T05:48:43;101490.50;;;4.22;100.00
4836;BME280;66719;51.226;6.902;2023-11-18T05:51:10;101486.19;;;4.22;100.00
4836;BME280;66719;51.226;6.902;2023-11-18T05:53:41;101476.69;;;4.23;100.00
4836;BME280;66719;51.226;6.902;2023-11-18T05:56:13;101474.13;;;4.24;100.00
4836;BME280;66719;51.226;6.902;2023-11-18T05:58:40;101476.72;;;4.24;100.00
4836;BME280;66719;51.226;6.902;2023-11-18T06:01:07;101484.56;;;4.26;100.00
4836;BME280;66719;51.226;6.902;2023-11-18T06:03:34;101478.53;;;4.27;100.00
4836;BME280;66719;51.226;6.902;2023-11-18T06:06:10;101475.09;;;4.30;100.00
4836;BME280;66719;51.226;6.902;2023-11-18T06:08:37;101474.25;;;4.31;100.00
4836;BME280;66719;51.226;6.902;2023-11-18T06:11:12;101463.88;;;4.31;100.00
4836;BME280;66719;51.226;6.902;2023-11-18T06:13:51;101469.09;;;4.32;100.00
4836;BME280;66719;51.226;6.902;2023-11-18T06:18:53;101470.91;;;4.35;100.00
4836;BME280;66719;51.226;6.902;2023-11-18T06:21:22;101453.56;;;4.34;100.00
4836;BME280;66719;51.226;6.902;2023-11-18T06:23:54;101456.22;;;4.35;100.00
4836;BME280;66719;51.226;6.902;2023-11-18T06:26:22;101450.19;;;4.36;100.00
4836;BME280;66719;51.226;6.902;2023-11-18T06:28:49;101453.66;;;4.38;100.00
4836;BME280;66719;51.226;6.902;2023-11-18T06:31:16;101460.63;;;4.41;100.00
4836;BME280;66719;51.226;6.902;2023-11-18T06:33:44;101448.50;;;4.40;100.00
4836;BME280;66719;51.226;6.902;2023-11-18T06:38:41;101452.88;;;4.42;100.00
4836;BME280;66719;51.226;6.902;2023-11-18T06:41:08;101443.44;;;4.44;100.00
4836;BME280;66719;51.226;6.902;2023-11-18T06:43:41;101447.75;;;4.44;100.00
4836;BME280;66719;51.226;6.902;2023-11-18T06:46:24;101450.34;;;4.45;100.00
4836;BME280;66719;51.226;6.902;2023-11-18T06:48:53;101449.50;;;4.46;100.00
4836;BME280;66719;51.226;6.902;2023-11-18T06:51:31;101449.53;;;4.48;100.00
4836;BME280;66719;51.226;6.902;2023-11-18T06:54:02;101463.38;;;4.50;100.00
4836;BME280;66719;51.226;6.902;2023-11-18T06:56:41;101455.59;;;4.50;100.00
4836;BME280;66719;51.226;6.902;2023-11-18T06:59:12;101464.31;;;4.53;100.00
4836;BME280;66719;51.226;6.902;2023-11-18T07:01:41;101472.09;;;4.52;100.00
4836;BME280;66719;51.226;6.902;2023-11-18T07:04:09;101464.31;;;4.53;100.00
4836;BME280;66719;51.226;6.902;2023-11-18T07:06:37;101471.28;;;4.56;100.00
4836;BME280;66719;51.226;6.902;2023-11-18T07:09:08;101461.75;;;4.55;100.00
4836;BME280;66719;51.226;6.902;2023-11-18T07:11:54;101480.81;;;4.59;100.00
4836;BME280;66719;51.226;6.902;2023-11-18T07:14:22;101501.66;;;4.62;100.00
4836;BME280;66719;51.226;6.902;2023-11-18T07:16:49;101504.25;;;4.62;100.00
4836;BME280;66719;51.226;6.902;2023-11-18T07:19:15;101494.78;;;4.65;100.00
4836;BME280;66719;51.226;6.902;2023-11-18T07:21:49;101485.28;;;4.66;100.00
4836;BME280;66719;51.226;6.902;2023-11-18T07:24:16;101481.84;;;4.68;100.00
4836;BME280;66719;51.226;6.902;2023-11-18T07:26:44;101486.28;;;4.72;100.00
4836;BME280;66719;51.226;6.902;2023-11-18T07:29:11;101471.59;;;4.73;100.00
4836;BME280;66719;51.226;6.902;2023-11-18T07:31:38;101471.66;;;4.77;100.00
4836;BME280;66719;51.226;6.902;2023-11-18T07:34:05;101455.22;;;4.77;100.00
4836;BME280;66719;51.226;6.902;2023-11-18T07:36:32;101467.38;;;4.79;100.00
4836;BME280;66719;51.226;6.902;2023-11-18T07:38:59;101470.00;;;4.81;100.00
4836;BME280;66719;51.226;6.902;2023-11-18T07:41:32;101464.00;;;4.85;100.00
4836;BME280;66719;51.226;6.902;2023-11-18T07:43:59;101452.81;;;4.88;100.00
4836;BME280;66719;51.226;6.902;2023-11-18T07:46:27;101454.56;;;4.89;100.00
4836;BME280;66719;51.226;6.902;2023-11-18T07:48:55;101452.84;;;4.91;100.00
4836;BME280;66719;51.226;6.902;2023-11-18T07:51:23;101452.03;;;4.93;100.00
4836;BME280;66719;51.226;6.902;2023-11-18T07:53:51;101449.50;;;4.96;100.00
4836;BME280;66719;51.226;6.902;2023-11-18T07:56:19;101442.59;;;4.97;100.00
4836;BME280;66719;51.226;6.902;2023-11-18T07:58:49;101444.34;;;4.98;100.00
4836;BME280;66719;51.226;6.902;2023-11-18T08:01:17;101436.59;;;5.01;100.00
4836;BME280;66719;51.226;6.902;2023-11-18T08:03:44;101436.66;;;5.04;100.00
4836;BME280;66719;51.226;6.902;2023-11-18T08:06:11;101436.69;;;5.07;100.00
4836;BME280;66719;51.226;6.902;2023-11-18T08:08:39;101443.63;;;5.09;100.00
4836;BME280;66719;51.226;6.902;2023-11-18T08:11:06;101442.81;;;5.12;100.00
4836;BME280;66719;51.226;6.902;2023-11-18T08:13:33;101432.50;;;5.15;100.00
4836;BME280;66719;51.226;6.902;2023-11-18T08:16:00;101436.81;;;5.16;100.00
4836;BME280;66719;51.226;6.902;2023-11-18T08:18:27;101442.06;;;5.19;100.00
4836;BME280;66719;51.226;6.902;2023-11-18T08:20:55;101442.97;;;5.21;100.00
4836;BME280;66719;51.226;6.902;2023-11-18T08:23:23;101441.25;;;5.23;100.00
4836;BME280;66719;51.226;6.902;2023-11-18T08:25:51;101449.09;;;5.26;100.00
4836;BME280;66719;51.226;6.902;2023-11-18T08:28:17;101458.63;;;5.27;100.00
4836;BME280;66719;51.226;6.902;2023-11-18T08:30:44;101447.41;;;5.30;100.00
4836;BME280;66719;51.226;6.902;2023-11-18T08:33:11;101439.59;;;5.30;100.00
4836;BME280;66719;51.226;6.902;2023-11-18T08:35:37;101446.63;;;5.35;100.00
4836;BME280;66719;51.226;6.902;2023-11-18T08:38:04;101458.81;;;5.39;100.00
4836;BME280;66719;51.226;6.902;2023-11-18T08:40:34;101459.69;;;5.40;100.00
4836;BME280;66719;51.226;6.902;2023-11-18T08:43:00;101443.28;;;5.43;100.00
4836;BME280;66719;51.226;6.902;2023-11-18T08:45:28;101447.63;;;5.47;100.00
4836;BME280;66719;51.226;6.902;2023-11-18T08:48:01;101452.84;;;5.47;100.00
4836;BME280;66719;51.226;6.902;2023-11-18T08:50:28;101452.03;;;5.51;100.00
4836;BME280;66719;51.226;6.902;2023-11-18T08:52:55;101452.94;;;5.53;100.00
4836;BME280;66719;51.226;6.902;2023-11-18T08:55:27;101452.06;;;5.54;100.00
4836;BME280;66719;51.226;6.902;2023-11-18T08:58:11;101445.16;;;5.56;100.00
4836;BME280;66719;51.226;6.902;2023-11-18T09:00:56;101438.28;;;5.58;100.00
4836;BME280;66719;51.226;6.902;2023-11-18T09:03:32;101453.94;;;5.62;100.00
4836;BME280;66719;51.226;6.902;2023-11-18T09:06:06;101453.16;;;5.68;100.00
4836;BME280;66719;51.226;6.902;2023-11-18T09:08:48;101454.03;;;5.68;100.00
4836;BME280;66719;51.226;6.902;2023-11-18T09:11:22;101436.69;;;5.67;100.00
4836;BME280;66719;51.226;6.902;2023-11-18T09:13:50;101435.84;;;5.72;100.00
4836;BME280;66719;51.226;6.902;2023-11-18T09:16:23;101436.78;;;5.75;100.00
4836;BME280;66719;51.226;6.902;2023-11-18T09:18:55;101427.31;;;5.80;100.00
4836;BME280;66719;51.226;6.902;2023-11-18T09:21:25;101419.53;;;5.82;100.00
4836;BME280;66719;51.226;6.902;2023-11-18T09:23:55;101413.53;;;5.84;100.00
4836;BME280;66719;51.226;6.902;2023-11-18T09:26:25;101414.38;;;5.83;100.00
4836;BME280;66719;51.226;6.902;2023-11-18T09:28:56;101412.69;;;5.90;100.00
4836;BME280;66719;51.226;6.902;2023-11-18T09:31:24;101407.59;;;5.91;100.00
4836;BME280;66719;51.226;6.902;2023-11-18T09:33:51;101402.41;;;5.93;100.00
4836;BME280;66719;51.226;6.902;2023-11-18T09:36:20;101399.72;;;5.90;100.00
4836;BME280;66719;51.226;6.902;2023-11-18T09:38:49;101404.13;;;5.92;100.00
4836;BME280;66719;51.226;6.902;2023-11-18T09:41:22;101413.69;;;5.97;100.00
4836;BME280;66719;51.226;6.902;2023-11-18T09:43:52;101405.03;;;5.98;100.00
4836;BME280;66719;51.226;6.902;2023-11-18T09:46:25;101404.22;;;6.02;100.00
4836;BME280;66719;51.226;6.902;2023-11-18T09:51:44;101402.56;;;6.08;100.00
4836;BME280;66719;51.226;6.902;2023-11-18T09:57:03;101406.94;;;6.14;100.00
4836;BME280;66719;51.226;6.902;2023-11-18T10:02:25;101407.81;;;6.16;100.00
4836;BME280;66719;51.226;6.902;2023-11-18T10:04:52;101400.88;;;6.12;100.00
4836;BME280;66719;51.226;6.902;2023-11-18T10:07:25;101406.94;;;6.14;100.00
4836;BME280;66719;51.226;6.902;2023-11-18T10:09:57;101403.50;;;6.16;100.00
4836;BME280;66719;51.226;6.902;2023-11-18T10:12:24;101394.00;;;6.17;100.00
4836;BME280;66719;51.226;6.902;2023-11-18T10:14:53;101394.91;;;6.20;100.00
4836;BME280;66719;51.226;6.902;2023-11-18T10:17:20;101379.38;;;6.27;100.00
4836;BME280;66719;51.226;6.902;2023-11-18T10:19:55;101375.91;;;6.31;100.00
4836;BME280;66719;51.226;6.902;2023-11-18T10:22:25;101361.25;;;6.34;100.00
4836;BME280;66719;51.226;6.902;2023-11-18T10:24:56;101364.72;;;6.36;100.00
4836;BME280;66719;51.226;6.902;2023-11-18T10:27:27;101350.88;;;6.40;100.00
4836;BME280;66719;51.226;6.902;2023-11-18T10:30:06;101328.34;;;6.42;100.00
4836;BME280;66719;51.226;6.902;2023-11-18T10:32:59;101332.72;;;6.46;100.00
4836;BME280;66719;51.226;6.902;2023-11-18T10:35:32;101330.13;;;6.48;100.00
4836;BME280;66719;51.226;6.902;2023-11-18T10:38:01;101317.13;;;6.48;100.00
4836;BME280;66719;51.226;6.902;2023-11-18T10:40:34;101311.97;;;6.53;100.00
4836;BME280;66719;51.226;6.902;2023-11-18T10:43:03;101307.66;;;6.56;100.00
4836;BME280;66719;51.226;6.902;2023-11-18T10:45:36;101306.78;;;6.56;100.00
4836;BME280;66719;51.226;6.902;2023-11-18T10:48:11;101298.09;;;6.55;100.00
4836;BME280;66719;51.226;6.902;2023-11-18T10:50:46;101282.50;;;6.58;100.00
4836;BME280;66719;51.226;6.902;2023-11-18T10:53:13;101278.22;;;6.62;100.00
4836;BME280;66719;51.226;6.902;2023-11-18T10:55:42;101275.63;;;6.63;100.00
4836;BME280;66719;51.226;6.902;2023-11-18T10:58:10;101275.63;;;6.62;100.00
4836;BME280;66719;51.226;6.902;2023-11-18T11:03:15;101292.97;;;6.63;100.00
4836;BME280;66719;51.226;6.902;2023-11-18T11:05:42;101287.75;;;6.64;100.00
4836;BME280;66719;51.226;6.902;2023-11-18T11:08:17;101273.94;;;6.70;100.00
4836;BME280;66719;51.226;6.902;2023-11-18T11:10:58;101263.53;;;6.73;100.00
4836;BME280;66719;51.226;6.902;2023-11-18T11:13:31;101254.00;;;6.75;100.00
4836;BME280;66719;51.226;6.902;2023-11-18T11:16:02;101259.19;;;6.76;100.00
4836;BME280;66719;51.226;6.902;2023-11-18T11:18:55;101264.44;;;6.78;100.00
4836;BME280;66719;51.226;6.902;2023-11-18T11:21:26;101261.84;;;6.78;100.00
4836;BME280;66719;51.226;6.902;2023-11-18T11:24:03;101263.53;;;6.73;100.00
4836;BME280;66719;51.226;6.902;2023-11-18T11:26:49;101258.31;;;6.73;100.00
4836;BME280;66719;51.226;6.902;2023-11-18T11:29:34;101260.94;;;6.73;100.00
4836;BME280;66719;51.226;6.902;2023-11-18T11:34:30;101255.72;;;6.73;100.00
4836;BME280;66719;51.226;6.902;2023-11-18T11:36:59;101254.84;;;6.71;100.00
4836;BME280;66719;51.226;6.902;2023-11-18T11:39:27;101251.38;;;6.72;100.00
4836;BME280;66719;51.226;6.902;2023-11-18T11:41:56;101260.06;;;6.74;100.00
4836;BME280;66719;51.226;6.902;2023-11-18T11:44:24;101245.31;;;6.76;100.00
4836;BME280;66719;51.226;6.902;2023-11-18T11:47:07;101242.72;;;6.74;100.00
4836;BME280;66719;51.226;6.902;2023-11-18T11:49:41;101228.84;;;6.72;100.00
4836;BME280;66719;51.226;6.902;2023-11-18T11:52:19;101227.09;;;6.74;100.00
4836;BME280;66719;51.226;6.902;2023-11-18T11:54:56;101221.03;;;6.77;100.00
4836;BME280;66719;51.226;6.902;2023-11-18T11:57:28;101216.75;;;6.82;100.00
4836;BME280;66719;51.226;6.902;2023-11-18T11:59:59;101221.97;;;6.88;100.00
4836;BME280;66719;51.226;6.902;2023-11-18T12:02:51;101230.66;;;6.90;100.00
4836;BME280;66719;51.226;6.902;2023-11-18T12:05:25;101227.19;;;6.91;100.00
4836;BME280;66719;51.226;6.902;2023-11-18T12:07:53;101215.03;;;6.90;100.00
4836;BME280;66719;51.226;6.902;2023-11-18T12:10:27;101222.84;;;6.87;100.00
4836;BME280;66719;51.226;6.902;2023-11-18T12:13:11;101225.41;;;6.86;100.00
4836;BME280;66719;51.226;6.902;2023-11-18T12:15:55;101209.81;;;6.86;100.00
4836;BME280;66719;51.226;6.902;2023-11-18T12:18:30;101196.81;;;6.87;100.00
4836;BME280;66719;51.226;6.902;2023-11-18T12:21:03;101172.50;;;6.85;100.00
4836;BME280;66719;51.226;6.902;2023-11-18T12:23:31;101175.13;;;6.88;100.00
4836;BME280;66719;51.226;6.902;2023-11-18T12:26:37;101151.69;;;6.82;100.00
4836;BME280;66719;51.226;6.902;2023-11-18T12:29:30;101139.53;;;6.79;100.00
4836;BME280;66719;51.226;6.902;2023-11-18T12:31:57;101128.22;;;6.77;100.00
4836;BME280;66719;51.226;6.902;2023-11-18T12:34:24;101120.47;;;6.79;100.00
4836;BME280;66719;51.226;6.902;2023-11-18T12:37:17;101118.72;;;6.78;100.00
4836;BME280;66719;51.226;6.902;2023-11-18T12:43:00;101114.38;;;6.78;100.00
4836;BME280;66719;51.226;6.902;2023-11-18T12:48:21;101098.78;;;6.82;100.00
4836;BME280;66719;51.226;6.902;2023-11-18T12:50:53;101093.56;;;6.85;100.00
4836;BME280;66719;51.226;6.902;2023-11-18T12:53:23;101076.22;;;6.85;100.00
4836;BME280;66719;51.226;6.902;2023-11-18T12:55:55;101070.16;;;6.85;100.00
4836;BME280;66719;51.226;6.902;2023-11-18T12:58:23;101063.19;;;6.85;100.00
4836;BME280;66719;51.226;6.902;2023-11-18T13:00:50;101047.63;;;6.87;100.00
4836;BME280;66719;51.226;6.902;2023-11-18T13:03:19;101032.88;;;6.90;100.00
4836;BME280;66719;51.226;6.902;2023-11-18T13:05:47;101032.88;;;6.92;100.00
4836;BME280;66719;51.226;6.902;2023-11-18T13:08:15;101032.00;;;6.91;100.00
4836;BME280;66719;51.226;6.902;2023-11-18T13:10:42;101025.94;;;6.91;100.00
4836;BME280;66719;51.226;6.902;2023-11-18T13:13:10;101029.38;;;6.91;100.00
4836;BME280;66719;51.226;6.902;2023-11-18T13:15:38;101026.78;;;6.91;100.00
4836;BME280;66719;51.226;6.902;2023-11-18T13:18:05;101017.25;;;6.96;100.00
4836;BME280;66719;51.226;6.902;2023-11-18T13:20:33;100999.03;;;6.96;100.00
4836;BME280;66719;51.226;6.902;2023-11-18T13:23:03;100987.78;;;6.96;100.00
4836;BME280;66719;51.226;6.902;2023-11-18T13:25:36;100973.03;;;6.96;100.00
4836;BME280;66719;51.226;6.902;2023-11-18T13:28:07;100960.00;;;6.98;100.00
4836;BME280;66719;51.226;6.902;2023-11-18T13:30:36;100934.81;;;7.01;100.00
4836;BME280;66719;51.226;6.902;2023-11-18T13:33:06;100935.69;;;7.03;100.00
4836;BME280;66719;51.226;6.902;2023-11-18T13:35:34;100934.81;;;7.01;100.00
4836;BME280;66719;51.226;6.902;2023-11-18T13:38:02;100927.88;;;7.03;100.00
4836;BME280;66719;51.226;6.902;2023-11-18T13:40:44;100922.66;;;7.03;100.00